Time;durP1;ratioP1;P1;durP2;ratioP2;P2;SDS_P1;SDS_P2;PMS_P1;PMS_P2;Temp;Humidity;BMP_temperature;BMP_pressure;BME280_temperature;BME280_humidity;BME280_pressure;Samples;Min_cycle;Max_cycle;Signal;HPM_P1;HPM_P2
2023/11/04 00:04:42;;;;;;;2.60;1.15;;;;;;;7.12;68.80;97755.91;10449532;28;20055;-81
2023/11/04 00:09:45;;;;;;;9.43;1.52;;;;;;;7.10;69.35;97753.41;10441162;28;20073;-78
2023/11/04 00:14:56;;;;;;;6.45;1.60;;;;;;;7.20;68.91;97754.06;10443536;28;20041;-79
2023/11/04 00:19:58;;;;;;;4.38;2.35;;;;;;;7.17;69.04;97748.25;10443679;28;20049;-80
2023/11/04 00:25:01;;;;;;;3.70;1.45;;;;;;;7.08;69.32;97758.09;10446495;28;20646;-80
2023/11/04 00:30:07;;;;;;;5.18;1.35;;;;;;;7.14;69.18;97751.25;10439547;28;20055;-81
2023/11/04 00:35:10;;;;;;;4.72;1.35;;;;;;;7.06;69.67;97757.41;10436485;28;20044;-79
2023/11/04 00:40:13;;;;;;;4.97;1.20;;;;;;;6.80;70.55;97753.03;10450950;28;20041;-80
2023/11/04 00:45:18;;;;;;;7.80;1.15;;;;;;;6.92;70.23;97756.22;10436968;28;20049;-81
2023/11/04 00:50:21;;;;;;;6.97;1.50;;;;;;;6.81;70.81;97751.19;10437880;28;21259;-81
2023/11/04 00:55:23;;;;;;;5.43;1.45;;;;;;;6.76;70.81;97759.66;10440631;28;20420;-81
2023/11/04 01:00:29;;;;;;;5.43;1.77;;;;;;;6.73;70.93;97744.00;10450347;28;20048;-81
2023/11/04 01:05:32;;;;;;;3.55;1.20;;;;;;;6.44;72.31;97739.09;10435146;28;20056;-78
2023/11/04 01:10:35;;;;;;;1.48;0.98;;;;;;;6.42;72.18;97740.25;10442386;28;21642;-81
2023/11/04 01:15:40;;;;;;;7.07;1.50;;;;;;;6.39;72.47;97730.75;10448895;28;20060;-79
2023/11/04 01:20:43;;;;;;;4.75;1.35;;;;;;;6.43;72.66;97728.59;10450787;28;20095;-81
2023/11/04 01:25:46;;;;;;;3.88;0.90;;;;;;;6.07;73.92;97728.81;10444041;28;20061;-80
2023/11/04 01:30:50;;;;;;;5.90;1.17;;;;;;;6.13;74.11;97718.31;10457340;28;20060;-78
2023/11/04 01:35:53;;;;;;;4.82;1.67;;;;;;;6.09;74.24;97714.34;10473098;28;20045;-78
2023/11/04 01:40:56;;;;;;;1.75;0.98;;;;;;;5.99;74.84;97718.13;10457223;28;20520;-79
2023/11/04 01:46:15;;;;;;;3.38;0.93;;;;;;;6.06;74.42;97719.13;10453327;28;20045;-81
2023/11/04 01:51:18;;;;;;;2.17;0.85;;;;;;;6.04;74.54;97713.16;10447970;28;20128;-80
2023/11/04 01:56:27;;;;;;;7.28;1.35;;;;;;;5.95;74.91;97707.78;10443542;28;20121;-77
2023/11/04 02:01:34;;;;;;;4.43;1.15;;;;;;;6.02;74.73;97701.81;10437383;28;20096;-79
2023/11/04 02:06:37;;;;;;;4.63;1.15;;;;;;;5.97;75.13;97688.13;10444440;28;20056;-79
2023/11/04 02:11:41;;;;;;;2.15;0.75;;;;;;;5.76;75.75;97683.19;10439474;28;20044;-80
2023/11/04 02:16:46;;;;;;;8.20;0.95;;;;;;;5.81;75.61;97683.56;10446694;28;20092;-80
2023/11/04 02:21:55;;;;;;;2.58;0.70;;;;;;;5.96;74.98;97695.28;10437059;28;20558;-81
2023/11/04 02:26:58;;;;;;;5.20;1.00;;;;;;;5.86;75.64;97699.91;10440601;28;20037;-79
2023/11/04 02:32:01;;;;;;;6.03;0.85;;;;;;;5.84;75.52;97702.75;10437619;28;21056;-78
2023/11/04 02:37:05;;;;;;;5.35;1.23;;;;;;;5.90;75.24;97694.09;10438826;28;20051;-79
2023/11/04 02:42:09;;;;;;;3.58;0.75;;;;;;;5.92;75.23;97693.94;10443661;28;20133;-79
2023/11/04 02:47:12;;;;;;;3.20;0.47;;;;;;;6.07;74.49;97683.50;10438935;28;20478;-79
2023/11/04 02:52:16;;;;;;;4.80;1.05;;;;;;;6.01;75.12;97677.00;10441027;28;20060;-81
2023/11/04 02:57:19;;;;;;;3.67;0.63;;;;;;;5.91;75.39;97681.59;10442452;28;20044;-81
2023/11/04 03:02:22;;;;;;;5.95;1.30;;;;;;;5.99;74.75;97673.66;10435654;28;20051;-77
2023/11/04 03:07:27;;;;;;;1.70;0.80;;;;;;;6.08;74.39;97661.19;10440115;28;20123;-82
2023/11/04 03:12:29;;;;;;;3.25;0.70;;;;;;;6.02;74.56;97659.19;10431826;28;20063;-81
2023/11/04 03:17:32;;;;;;;4.70;1.40;;;;;;;6.10;74.18;97653.88;10437871;28;20636;-80
2023/11/04 03:22:37;;;;;;;2.17;0.52;;;;;;;6.09;74.19;97645.03;10427995;28;20048;-78
2023/11/04 03:27:41;;;;;;;1.77;0.63;;;;;;;5.88;74.99;97641.97;10431993;28;20703;-79
2023/11/04 03:32:44;;;;;;;0.63;0.40;;;;;;;6.03;74.33;97644.84;10427979;28;21161;-80
2023/11/04 03:37:48;;;;;;;2.05;0.82;;;;;;;6.06;74.63;97633.84;10437088;28;20088;-79
2023/11/04 03:42:51;;;;;;;4.68;0.70;;;;;;;5.96;74.92;97628.69;10429060;28;20052;-81
2023/11/04 03:47:54;;;;;;;3.30;1.15;;;;;;;5.98;74.64;97621.38;10429414;28;20696;-77
2023/11/04 03:52:59;;;;;;;1.10;0.55;;;;;;;6.01;74.80;97601.56;10439301;28;20051;-78
2023/11/04 03:58:02;;;;;;;5.55;0.75;;;;;;;6.09;74.33;97607.75;10436095;28;20063;-78
2023/11/04 04:03:06;;;;;;;2.08;0.63;;;;;;;6.20;74.03;97598.59;10424673;28;20053;-78
2023/11/04 04:08:11;;;;;;;2.92;0.60;;;;;;;6.16;73.72;97599.91;10450461;28;20048;-79
2023/11/04 04:13:14;;;;;;;4.72;0.73;;;;;;;6.42;73.06;97588.25;10437916;28;20088;-81
2023/11/04 04:18:16;;;;;;;2.03;0.55;;;;;;;6.37;73.36;97583.44;10447799;28;20060;-79
2023/11/04 04:23:21;;;;;;;2.85;0.80;;;;;;;6.59;72.28;97584.63;10443075;28;21618;-79
2023/11/04 04:28:24;;;;;;;0.82;0.60;;;;;;;6.58;72.35;97581.13;10443279;28;20068;-80
2023/11/04 04:33:27;;;;;;;2.35;0.52;;;;;;;6.52;72.82;97580.94;10440596;28;20055;-80
2023/11/04 04:38:31;;;;;;;1.23;0.70;;;;;;;6.59;72.02;97581.94;10452574;28;20052;-80
2023/11/04 04:43:34;;;;;;;3.55;0.57;;;;;;;6.50;72.63;97581.13;10454215;28;20044;-79
2023/11/04 04:48:37;;;;;;;0.90;0.47;;;;;;;6.81;71.61;97565.25;10447481;28;20044;-79
2023/11/04 04:53:41;;;;;;;2.30;0.52;;;;;;;6.85;71.39;97571.91;10445970;28;20508;-79
2023/11/04 04:58:46;;;;;;;1.17;0.57;;;;;;;6.59;72.14;97561.44;10468086;28;20055;-77
2023/11/04 05:03:49;;;;;;;0.80;0.50;;;;;;;6.71;71.38;97553.09;10453379;28;20053;-81
2023/11/04 05:08:55;;;;;;;2.17;0.75;;;;;;;6.60;71.51;97559.59;10450374;28;20045;-78
2023/11/04 05:13:58;;;;;;;0.68;0.35;;;;;;;6.47;72.17;97569.94;10447945;28;20049;-79
2023/11/04 05:19:01;;;;;;;2.42;0.47;;;;;;;6.88;71.09;97543.25;10448181;28;20530;-80
2023/11/04 05:24:06;;;;;;;0.45;0.45;;;;;;;6.78;71.13;97554.09;10446310;28;20045;-79
2023/11/04 05:29:09;;;;;;;1.25;0.75;;;;;;;6.83;71.38;97544.59;10443115;28;20143;-81
2023/11/04 05:34:12;;;;;;;1.17;0.38;;;;;;;6.93;70.48;97533.75;10455678;28;20095;-79
2023/11/04 05:39:17;;;;;;;0.85;0.50;;;;;;;7.13;69.95;97539.53;10443046;28;20056;-78
2023/11/04 05:44:19;;;;;;;0.40;0.40;;;;;;;7.22;70.01;97532.34;10452954;28;21488;-79
2023/11/04 05:49:22;;;;;;;0.88;0.50;;;;;;;7.13;69.78;97534.22;10452298;28;20052;-79
2023/11/04 05:54:27;;;;;;;0.80;0.50;;;;;;;7.27;69.95;97530.00;10462111;28;20163;-79
2023/11/04 05:59:30;;;;;;;1.25;0.52;;;;;;;7.18;70.30;97518.47;10458087;28;20059;-80
2023/11/04 06:04:32;;;;;;;2.20;0.50;;;;;;;7.17;70.48;97518.66;10446088;28;20097;-81
2023/11/04 06:09:37;;;;;;;3.85;0.70;;;;;;;7.18;70.93;97512.31;10461716;28;20715;-79
2023/11/04 06:14:40;;;;;;;2.33;0.50;;;;;;;7.22;70.61;97510.97;10458423;28;20252;-79
2023/11/04 06:19:43;;;;;;;1.63;0.50;;;;;;;7.35;70.27;97500.59;10448613;28;20767;-78
2023/11/04 06:24:47;;;;;;;1.60;0.50;;;;;;;7.23;70.61;97505.44;10446386;28;20055;-81
2023/11/04 06:29:50;;;;;;;3.83;0.60;;;;;;;7.22;71.18;97501.13;10444837;28;20044;-80
2023/11/04 06:34:53;;;;;;;0.98;0.50;;;;;;;7.45;69.86;97503.84;10448045;28;20055;-81
2023/11/04 06:39:58;;;;;;;0.90;0.35;;;;;;;7.42;69.93;97500.72;10442128;28;20053;-80
2023/11/04 06:45:01;;;;;;;0.52;0.35;;;;;;;7.49;69.50;97502.50;10445560;28;20084;-80
2023/11/04 06:50:05;;;;;;;1.67;0.80;;;;;;;7.64;68.77;97494.56;10444941;28;20040;-77
2023/11/04 06:55:10;;;;;;;0.55;0.40;;;;;;;7.39;69.75;97498.38;10447246;28;20041;-80
2023/11/04 07:00:14;;;;;;;1.70;0.70;;;;;;;7.56;69.73;97494.63;10451706;28;20044;-80
2023/11/04 07:05:17;;;;;;;1.88;1.10;;;;;;;7.62;69.74;97487.75;10451936;28;20037;-80
2023/11/04 07:10:21;;;;;;;0.85;0.45;;;;;;;7.63;69.70;97484.91;10459796;28;20047;-76
2023/11/04 07:15:24;;;;;;;1.05;0.60;;;;;;;7.58;69.74;97473.91;10449639;28;20641;-79
2023/11/04 07:20:27;;;;;;;0.70;0.40;;;;;;;7.82;69.23;97477.44;10463218;28;20044;-79
2023/11/04 07:25:31;;;;;;;1.02;0.93;;;;;;;7.79;69.17;97477.78;10445692;28;20051;-80
2023/11/04 07:30:36;;;;;;;1.88;0.52;;;;;;;8.00;68.95;97467.28;10482302;28;20561;-78
2023/11/04 07:35:39;;;;;;;0.80;0.60;;;;;;;8.18;68.50;97459.78;10438211;28;20064;-78
2023/11/04 07:40:43;;;;;;;1.15;0.70;;;;;;;7.99;69.12;97464.78;10443461;28;20053;-79
2023/11/04 07:45:46;;;;;;;1.45;0.70;;;;;;;8.02;69.42;97461.75;10452304;28;20051;-81
2023/11/04 07:50:50;;;;;;;2.40;0.77;;;;;;;7.93;69.44;97464.50;10446413;28;20044;-81
2023/11/04 07:55:56;;;;;;;2.55;0.70;;;;;;;7.87;70.28;97454.53;10438496;28;20044;-81
2023/11/04 08:00:59;;;;;;;2.20;1.00;;;;;;;7.91;70.75;97455.81;10444688;28;20048;-80
2023/11/04 08:06:01;;;;;;;1.88;1.00;;;;;;;7.84;70.88;97454.84;10451676;28;20810;-82
2023/11/04 08:11:06;;;;;;;4.20;1.20;;;;;;;7.98;70.89;97449.75;10450970;28;20056;-81
2023/11/04 08:16:10;;;;;;;0.82;0.77;;;;;;;7.98;70.89;97444.41;10450071;28;20061;-79
2023/11/04 08:21:15;;;;;;;1.45;0.80;;;;;;;8.09;70.74;97446.66;10454256;28;20053;-81
2023/11/04 08:26:19;;;;;;;2.92;1.08;;;;;;;8.33;70.08;97445.59;10445058;28;20187;-81
2023/11/04 08:31:22;;;;;;;1.55;0.95;;;;;;;8.35;69.89;97440.91;10441459;28;20040;-79
2023/11/04 08:36:25;;;;;;;2.08;0.70;;;;;;;8.35;70.19;97431.03;10460071;28;20045;-79
2023/11/04 08:41:30;;;;;;;1.45;1.05;;;;;;;8.43;69.91;97427.47;10448775;28;20053;-79
2023/11/04 08:46:32;;;;;;;3.00;0.80;;;;;;;8.63;69.57;97421.63;10440454;28;20578;-79
2023/11/04 08:51:36;;;;;;;2.15;0.80;;;;;;;8.65;69.73;97419.59;10451815;28;20059;-80
2023/11/04 08:56:40;;;;;;;6.03;0.90;;;;;;;8.82;69.19;97405.81;10446831;28;20163;-81
2023/11/04 09:01:43;;;;;;;0.82;0.52;;;;;;;8.53;69.69;97387.94;10446174;28;20351;-81
2023/11/04 09:06:46;;;;;;;0.90;0.70;;;;;;;8.91;69.04;97390.50;10451356;28;20052;-79
2023/11/04 09:11:52;;;;;;;1.52;0.98;;;;;;;9.45;67.23;97363.31;10443812;28;20041;-79
2023/11/04 09:16:54;;;;;;;1.00;0.85;;;;;;;10.36;63.33;97358.09;10440671;28;20510;-79
2023/11/04 09:21:57;;;;;;;1.25;0.90;;;;;;;9.29;66.82;97364.38;10452348;28;21390;-77
2023/11/04 09:27:02;;;;;;;1.58;0.70;;;;;;;9.19;67.92;97363.88;10453960;28;20057;-79
2023/11/04 09:32:07;;;;;;;0.90;0.77;;;;;;;9.63;66.98;97341.44;10454168;28;20052;-80
2023/11/04 09:37:10;;;;;;;1.83;0.98;;;;;;;9.91;65.92;97336.13;10455384;28;20044;-81
2023/11/04 09:42:15;;;;;;;2.67;0.75;;;;;;;9.88;65.42;97333.84;10454204;28;20198;-81
2023/11/04 09:47:18;;;;;;;2.03;0.60;;;;;;;10.02;65.61;97316.00;10442586;28;20075;-82
2023/11/04 09:52:22;;;;;;;3.38;0.70;;;;;;;10.09;64.78;97306.16;10452375;28;20052;-79
2023/11/04 09:57:27;;;;;;;0.80;0.57;;;;;;;11.16;61.24;97307.50;10452345;28;20546;-80
2023/11/04 10:02:30;;;;;;;1.27;0.90;;;;;;;11.50;59.61;97303.84;10456606;28;20048;-82
2023/11/04 10:07:33;;;;;;;3.65;1.48;;;;;;;11.13;59.50;97296.31;10448553;28;22475;-80
2023/11/04 10:12:38;;;;;;;0.88;0.65;;;;;;;10.93;61.48;97307.00;10449588;28;20067;-79
2023/11/04 10:17:41;;;;;;;3.15;1.45;;;;;;;10.77;61.33;97284.81;10451926;28;20052;-80
2023/11/04 10:22:44;;;;;;;3.05;1.13;;;;;;;10.73;61.76;97286.28;10451068;28;20056;-81
2023/11/04 10:27:48;;;;;;;2.80;1.58;;;;;;;10.44;62.94;97271.25;10452412;28;20053;-81
2023/11/04 10:32:54;;;;;;;1.73;1.30;;;;;;;12.45;58.17;97248.94;10447240;28;21606;-81
2023/11/04 10:38:04;;;;;;;2.63;0.80;;;;;;;12.45;55.11;97257.84;10442394;28;21224;-81
2023/11/04 10:43:14;;;;;;;1.30;0.75;;;;;;;13.30;53.74;97249.50;10464370;28;20044;-78
2023/11/04 10:48:23;;;;;;;0.93;0.77;;;;;;;12.56;54.92;97245.56;10459200;28;20056;-81
2023/11/04 10:53:42;;;;;;;1.17;0.82;;;;;;;11.22;59.96;97236.84;10455233;28;20704;-80
2023/11/04 10:58:55;;;;;;;3.88;1.10;;;;;;;10.69;61.67;97225.94;10446035;28;20245;-82
2023/11/04 11:04:00;;;;;;;1.85;1.23;;;;;;;10.04;64.44;97200.50;10446797;28;20044;-81
2023/11/04 11:09:04;;;;;;;1.52;1.00;;;;;;;9.69;65.46;97203.16;10447024;28;20060;-80
2023/11/04 11:14:09;;;;;;;5.10;1.38;;;;;;;9.64;66.40;97192.19;10443724;28;20053;-81
2023/11/04 11:19:12;;;;;;;1.55;1.10;;;;;;;9.31;67.34;97176.72;10460441;28;20055;-80
2023/11/04 11:24:16;;;;;;;2.05;0.70;;;;;;;9.74;66.52;97136.41;10450740;28;20052;-81
2023/11/04 11:29:24;;;;;;;2.88;1.05;;;;;;;10.54;63.83;97139.44;10444144;28;20620;-81
2023/11/04 11:34:27;;;;;;;0.90;0.75;;;;;;;11.77;59.85;97125.59;10453442;28;20052;-79
2023/11/04 11:39:30;;;;;;;1.00;0.90;;;;;;;14.42;51.76;97119.19;10448537;28;20061;-79
2023/11/04 11:44:35;;;;;;;1.60;1.08;;;;;;;14.15;51.02;97112.25;10446104;28;20048;-81
2023/11/04 11:49:38;;;;;;;5.57;3.55;;;;;;;14.87;49.98;97103.38;10443788;28;20044;-82
2023/11/04 11:54:42;;;;;;;0.75;0.73;;;;;;;12.97;53.34;97105.09;10439347;28;21514;-79
2023/11/04 11:59:48;;;;;;;2.88;0.68;;;;;;;12.17;55.97;97112.81;10436378;28;21539;-81
2023/11/04 12:04:50;;;;;;;1.45;0.82;;;;;;;10.89;59.90;97094.47;10443995;28;20519;-80
2023/11/04 12:09:55;;;;;;;1.40;0.80;;;;;;;10.41;61.92;97086.56;10442618;28;20731;-78
2023/11/04 12:15:01;;;;;;;2.13;0.80;;;;;;;10.43;63.36;97089.03;10454699;28;20056;-78
2023/11/04 12:20:05;;;;;;;3.17;1.25;;;;;;;9.99;63.76;97079.66;10454316;28;20051;-80
2023/11/04 12:25:14;;;;;;;1.90;0.82;;;;;;;9.96;64.49;97072.00;10461130;28;20052;-80
2023/11/04 12:30:20;;;;;;;2.20;1.13;;;;;;;9.97;64.08;97068.28;10464348;28;20057;-82
2023/11/04 12:35:23;;;;;;;1.20;1.00;;;;;;;10.02;63.89;97044.38;10469240;28;20048;-79
2023/11/04 12:40:29;;;;;;;6.05;1.52;;;;;;;10.20;64.11;97031.19;10467284;28;20052;-79
2023/11/04 12:45:34;;;;;;;4.93;1.60;;;;;;;10.46;62.14;97016.19;10452925;28;20167;-77
2023/11/04 12:50:37;;;;;;;7.43;3.75;;;;;;;10.48;62.76;96993.50;10453647;28;20123;-78
2023/11/04 12:55:41;;;;;;;2.28;1.30;;;;;;;10.45;62.14;96979.66;10453508;28;20126;-78
2023/11/04 13:00:46;;;;;;;1.52;0.80;;;;;;;10.09;64.00;96975.50;10453894;28;20183;-80
2023/11/04 13:05:49;;;;;;;4.00;1.40;;;;;;;9.99;64.41;96967.88;10451296;28;20056;-80
2023/11/04 13:10:53;;;;;;;1.90;0.88;;;;;;;9.87;65.30;96962.28;10453959;28;20131;-80
2023/11/04 13:15:57;;;;;;;3.92;1.27;;;;;;;9.70;65.80;96947.56;10453884;28;20512;-82
2023/11/04 13:21:00;;;;;;;1.83;0.82;;;;;;;9.76;65.28;96941.38;10454347;28;20048;-81
2023/11/04 13:26:04;;;;;;;1.70;0.98;;;;;;;9.55;65.69;96934.34;10453065;28;20748;-80
2023/11/04 13:31:08;;;;;;;4.30;2.35;;;;;;;9.75;65.08;96929.03;10450855;28;20160;-77
2023/11/04 13:36:12;;;;;;;1.75;1.50;;;;;;;9.99;64.59;96929.50;10475316;28;20160;-80
2023/11/04 13:41:15;;;;;;;1.30;1.00;;;;;;;9.86;64.51;96916.91;10459110;28;20056;-81
2023/11/04 13:46:22;;;;;;;1.40;0.95;;;;;;;9.91;64.46;96891.13;10465739;28;20129;-82
2023/11/04 13:51:25;;;;;;;3.17;1.58;;;;;;;9.89;64.25;96892.38;10451212;28;21159;-80
2023/11/04 13:56:28;;;;;;;2.47;0.70;;;;;;;9.76;64.56;96885.09;10459449;28;21154;-80
2023/11/04 14:01:32;;;;;;;5.68;1.13;;;;;;;9.96;64.30;96876.31;10456043;28;20063;-79
2023/11/04 14:06:35;;;;;;;2.13;0.90;;;;;;;9.72;65.32;96868.63;10446869;28;20048;-81
2023/11/04 14:11:38;;;;;;;4.40;1.48;;;;;;;9.56;66.53;96869.00;10447138;28;20420;-80
2023/11/04 14:16:42;;;;;;;4.50;1.10;;;;;;;9.33;68.54;96853.31;10449753;28;20041;-78
2023/11/04 14:21:45;;;;;;;2.85;0.90;;;;;;;9.57;71.81;96840.34;10452594;28;20633;-81
2023/11/04 14:26:48;;;;;;;1.38;0.73;;;;;;;8.88;77.18;96804.75;10453082;28;20193;-79
2023/11/04 14:31:52;;;;;;;7.32;1.98;;;;;;;8.65;83.44;96801.59;10451246;28;20051;-80
2023/11/04 14:36:55;;;;;;;1.92;0.77;;;;;;;8.30;86.41;96781.00;10448160;28;20059;-79
2023/11/04 14:41:58;;;;;;;2.20;0.77;;;;;;;8.13;88.76;96752.97;10452312;28;20179;-77
2023/11/04 14:47:03;;;;;;;4.13;2.55;;;;;;;7.94;90.38;96751.81;10453344;28;20063;-78
2023/11/04 14:52:06;;;;;;;2.75;1.10;;;;;;;7.62;90.93;96732.69;10449680;28;20500;-80
2023/11/04 14:57:09;;;;;;;2.33;1.17;;;;;;;7.54;94.75;96729.34;10438424;28;20104;-79
2023/11/04 15:02:13;;;;;;;2.15;1.25;;;;;;;7.28;100.00;96718.25;10440828;28;20041;-80
2023/11/04 15:07:16;;;;;;;3.17;1.42;;;;;;;6.81;100.00;96722.31;10440772;28;21061;-80
2023/11/04 15:12:21;;;;;;;7.85;3.17;;;;;;;6.92;100.00;96712.19;10441724;28;20197;-79
2023/11/04 15:17:26;;;;;;;6.40;1.27;;;;;;;6.75;100.00;96711.59;10454137;28;20037;-78
2023/11/04 15:22:29;;;;;;;3.33;1.50;;;;;;;6.84;100.00;96713.94;10461349;28;20072;-78
2023/11/04 15:27:32;;;;;;;2.13;1.23;;;;;;;6.90;100.00;96704.38;10462030;28;20060;-78
2023/11/04 15:32:36;;;;;;;2.60;1.58;;;;;;;7.02;100.00;96692.19;10447736;28;20516;-78
2023/11/04 15:37:40;;;;;;;3.03;1.58;;;;;;;6.97;100.00;96689.25;10443281;28;20562;-79
2023/11/04 15:42:42;;;;;;;6.13;1.60;;;;;;;7.02;100.00;96670.00;10441129;28;20052;-80
2023/11/04 15:47:47;;;;;;;2.08;1.88;;;;;;;6.97;100.00;96677.78;10442006;28;20049;-79
2023/11/04 15:52:50;;;;;;;5.72;2.25;;;;;;;7.01;100.00;96663.84;10437362;28;20052;-77
2023/11/04 15:57:53;;;;;;;3.30;1.75;;;;;;;6.79;100.00;96648.84;10448994;28;20052;-80
2023/11/04 16:02:57;;;;;;;2.08;1.77;;;;;;;7.00;100.00;96646.19;10432684;28;20118;-79
2023/11/04 16:08:00;;;;;;;0.90;0.70;;;;;;;6.89;100.00;96641.38;10438617;28;20045;-80
2023/11/04 16:13:06;;;;;;;3.25;1.38;;;;;;;6.92;100.00;96627.66;10443956;28;20052;-80
2023/11/04 16:18:10;;;;;;;2.53;0.95;;;;;;;6.91;100.00;96620.69;10448847;28;20060;-81
2023/11/04 16:23:14;;;;;;;3.75;1.20;;;;;;;6.90;100.00;96610.19;10442154;28;20053;-78
2023/11/04 16:28:17;;;;;;;4.85;1.50;;;;;;;6.84;100.00;96601.09;10450757;28;21460;-80
2023/11/04 16:33:22;;;;;;;1.15;1.00;;;;;;;6.97;100.00;96611.91;10447626;28;20467;-79
2023/11/04 16:38:25;;;;;;;2.00;0.98;;;;;;;6.92;100.00;96610.81;10454106;28;21172;-79
2023/11/04 16:43:28;;;;;;;1.65;0.70;;;;;;;6.94;100.00;96600.75;10457283;28;20052;-80
2023/11/04 16:48:32;;;;;;;2.92;0.95;;;;;;;7.11;100.00;96617.34;10447432;28;20044;-80
2023/11/04 16:53:35;;;;;;;2.25;0.80;;;;;;;7.04;100.00;96580.72;10443971;28;20049;-81
2023/11/04 16:58:38;;;;;;;0.65;0.60;;;;;;;6.84;100.00;96574.41;10446217;28;20052;-80
2023/11/04 17:03:42;;;;;;;1.50;0.70;;;;;;;6.92;100.00;96562.81;10445288;28;20052;-80
2023/11/04 17:08:46;;;;;;;4.20;1.30;;;;;;;6.98;100.00;96562.03;10454348;28;20501;-79
2023/11/04 17:13:49;;;;;;;1.15;0.85;;;;;;;7.19;100.00;96548.63;10438108;28;21156;-80
2023/11/04 17:18:54;;;;;;;3.42;1.13;;;;;;;7.10;100.00;96546.28;10448024;28;20049;-79
2023/11/04 17:23:57;;;;;;;1.95;1.05;;;;;;;6.98;100.00;96544.16;10448698;28;20052;-79
2023/11/04 17:29:00;;;;;;;1.27;0.70;;;;;;;6.99;100.00;96543.16;10437005;28;20044;-79
2023/11/04 17:34:05;;;;;;;3.05;0.88;;;;;;;6.96;100.00;96535.53;10443575;28;20526;-78
2023/11/04 17:39:08;;;;;;;3.50;0.50;;;;;;;7.14;100.00;96526.22;10445470;28;20051;-80
2023/11/04 17:44:11;;;;;;;1.00;0.80;;;;;;;7.07;100.00;96518.16;10446702;28;20052;-79
2023/11/04 17:49:15;;;;;;;0.63;0.57;;;;;;;6.88;100.00;96514.34;10471884;28;20048;-78
2023/11/04 17:54:18;;;;;;;0.45;0.40;;;;;;;7.14;100.00;96504.88;10470499;28;20237;-79
2023/11/04 17:59:21;;;;;;;2.67;0.57;;;;;;;7.17;100.00;96515.97;10455604;28;20560;-79
2023/11/04 18:04:25;;;;;;;0.30;0.30;;;;;;;7.05;100.00;96488.19;10449254;28;20049;-77
2023/11/04 18:09:28;;;;;;;1.02;0.40;;;;;;;7.19;100.00;96497.09;10466754;28;20060;-79
2023/11/04 18:14:31;;;;;;;2.13;0.63;;;;;;;7.16;100.00;96481.47;10447820;28;20068;-78
2023/11/04 18:19:35;;;;;;;0.88;0.28;;;;;;;7.15;99.95;96482.50;10448419;28;20225;-78
2023/11/04 18:24:38;;;;;;;0.75;0.40;;;;;;;7.20;99.85;96470.19;10439515;28;20048;-78
2023/11/04 18:29:41;;;;;;;0.50;0.40;;;;;;;7.10;99.75;96451.06;10444693;28;20165;-79
2023/11/04 18:34:45;;;;;;;2.47;0.82;;;;;;;7.15;98.85;96453.13;10446486;28;20771;-78
2023/11/04 18:39:48;;;;;;;0.30;0.30;;;;;;;7.24;97.61;96436.78;10440189;28;20056;-79
2023/11/04 18:44:51;;;;;;;4.22;0.30;;;;;;;7.43;97.94;96421.00;10433054;28;20057;-78
2023/11/04 18:49:55;;;;;;;0.20;0.20;;;;;;;7.26;95.96;96431.22;10438900;28;20195;-78
2023/11/04 18:54:58;;;;;;;0.45;0.45;;;;;;;7.23;94.72;96432.44;10443766;28;20139;-80
2023/11/04 19:00:00;;;;;;;0.22;0.22;;;;;;;7.33;94.93;96439.28;10440891;28;20049;-78
2023/11/04 19:05:07;;;;;;;0.75;0.50;;;;;;;7.09;93.91;96419.25;10436525;28;20798;-80
2023/11/04 19:10:11;;;;;;;1.58;0.30;;;;;;;7.32;92.62;96409.06;10442162;28;20065;-79
2023/11/04 19:15:14;;;;;;;0.50;0.30;;;;;;;7.45;92.58;96410.97;10436079;28;20098;-78
2023/11/04 19:20:18;;;;;;;0.70;0.38;;;;;;;7.38;92.45;96397.59;10433447;28;20055;-81
2023/11/04 19:25:21;;;;;;;0.47;0.30;;;;;;;7.28;92.35;96394.47;10440445;28;20087;-78
2023/11/04 19:30:28;;;;;;;0.30;0.20;;;;;;;7.23;92.06;96408.41;10443417;28;20052;-79
2023/11/04 19:35:33;;;;;;;0.30;0.30;;;;;;;7.48;92.74;96399.88;10445556;28;20903;-80
2023/11/04 19:40:35;;;;;;;2.55;0.50;;;;;;;7.40;91.11;96419.56;10450755;28;20621;-81
2023/11/04 19:45:39;;;;;;;0.50;0.40;;;;;;;7.50;94.91;96403.16;10442047;28;20048;-81
2023/11/04 19:50:44;;;;;;;0.40;0.20;;;;;;;7.19;97.77;96399.19;10446919;28;20053;-80
2023/11/04 19:55:46;;;;;;;0.30;0.30;;;;;;;7.34;98.50;96393.69;10443225;28;20041;-80
2023/11/04 20:00:50;;;;;;;0.30;0.20;;;;;;;7.13;98.38;96377.78;10441251;28;20049;-78
2023/11/04 20:05:56;;;;;;;1.02;0.30;;;;;;;7.28;98.04;96389.16;10451823;28;20045;-78
2023/11/04 20:10:59;;;;;;;2.78;0.50;;;;;;;7.34;97.16;96375.00;10455943;28;20048;-79
2023/11/04 20:16:02;;;;;;;1.58;0.40;;;;;;;7.30;96.74;96384.44;10441145;28;20056;-78
2023/11/04 20:21:06;;;;;;;0.50;0.47;;;;;;;7.44;96.76;96379.97;10448657;28;20060;-79
2023/11/04 20:26:09;;;;;;;1.67;0.50;;;;;;;7.42;96.28;96385.50;10429830;28;20052;-80
2023/11/04 20:31:12;;;;;;;0.35;0.30;;;;;;;7.47;96.33;96392.91;10433020;28;20055;-79
2023/11/04 20:36:17;;;;;;;0.52;0.32;;;;;;;7.63;95.54;96392.53;10426462;28;20530;-81
2023/11/04 20:41:20;;;;;;;0.85;0.20;;;;;;;7.77;94.76;96372.00;10437015;28;20782;-79
2023/11/04 20:46:23;;;;;;;0.85;0.40;;;;;;;7.91;95.60;96381.66;10434629;28;20118;-82
2023/11/04 20:51:28;;;;;;;1.05;0.45;;;;;;;7.88;95.30;96383.94;10442024;28;20045;-80
2023/11/04 20:56:31;;;;;;;1.85;0.57;;;;;;;7.99;93.90;96385.16;10451025;28;20059;-79
2023/11/04 21:01:34;;;;;;;0.47;0.30;;;;;;;7.82;92.51;96388.25;10442519;28;20048;-80
2023/11/04 21:06:38;;;;;;;0.32;0.32;;;;;;;7.89;94.84;96380.22;10446715;28;20079;-80
2023/11/04 21:11:41;;;;;;;2.10;0.30;;;;;;;7.76;96.22;96394.38;10448993;28;20032;-77
2023/11/04 21:16:45;;;;;;;0.32;0.30;;;;;;;7.89;96.19;96399.72;10443658;28;20052;-81
2023/11/04 21:21:50;;;;;;;0.93;0.50;;;;;;;7.82;96.92;96385.56;10452911;28;20463;-82
2023/11/04 21:26:53;;;;;;;0.95;0.38;;;;;;;7.68;98.15;96392.75;10450156;28;20052;-79
2023/11/04 21:31:56;;;;;;;2.17;0.47;;;;;;;7.21;100.00;96389.13;10462434;28;20045;-79
2023/11/04 21:37:00;;;;;;;1.00;0.60;;;;;;;7.32;100.00;96374.38;10461405;28;20713;-80
2023/11/04 21:42:03;;;;;;;0.80;0.32;;;;;;;7.58;100.00;96362.94;10461791;28;20052;-80
2023/11/04 21:47:06;;;;;;;0.75;0.45;;;;;;;7.81;100.00;96364.38;10459784;28;20068;-78
2023/11/04 21:52:10;;;;;;;0.77;0.47;;;;;;;7.82;100.00;96363.38;10455993;28;20111;-80
2023/11/04 21:57:13;;;;;;;3.85;0.80;;;;;;;7.73;100.00;96350.22;10457486;28;20049;-80
2023/11/04 22:02:16;;;;;;;3.85;0.93;;;;;;;7.68;100.00;96352.69;10469475;28;20048;-78
2023/11/04 22:07:20;;;;;;;2.15;1.20;;;;;;;7.81;100.00;96357.19;10459431;28;20138;-81
2023/11/04 22:12:23;;;;;;;3.60;1.63;;;;;;;7.59;100.00;96353.06;10454029;28;20056;-79
2023/11/04 22:17:26;;;;;;;1.67;1.10;;;;;;;7.67;100.00;96364.38;10462181;28;20052;-78
2023/11/04 22:22:31;;;;;;;1.98;0.60;;;;;;;7.77;100.00;96357.81;10460192;28;21260;-79
2023/11/04 22:27:34;;;;;;;4.47;0.80;;;;;;;7.84;100.00;96361.31;10458257;28;20048;-77
2023/11/04 22:32:37;;;;;;;3.13;0.68;;;;;;;7.94;100.00;96369.75;10468637;28;20170;-78
2023/11/04 22:37:41;;;;;;;1.42;0.80;;;;;;;7.87;100.00;96379.59;10460307;28;20472;-78
2023/11/04 22:42:44;;;;;;;1.90;0.52;;;;;;;7.87;100.00;96372.44;10443951;28;20053;-75
2023/11/04 22:47:47;;;;;;;1.00;0.70;;;;;;;8.13;100.00;96378.78;10445843;28;20052;-79
2023/11/04 22:52:51;;;;;;;3.15;1.27;;;;;;;8.21;100.00;96378.59;10448849;28;20051;-78
2023/11/04 22:57:54;;;;;;;1.15;0.50;;;;;;;8.18;100.00;96384.34;10455446;28;20911;-80
2023/11/04 23:02:59;;;;;;;0.45;0.43;;;;;;;8.14;100.00;96373.22;10457084;28;20044;-79
2023/11/04 23:08:04;;;;;;;1.73;0.50;;;;;;;8.40;100.00;96385.75;10446025;28;20053;-79
2023/11/04 23:13:08;;;;;;;3.78;0.65;;;;;;;8.44;100.00;96372.78;10448990;28;20049;-81
2023/11/04 23:18:11;;;;;;;2.15;0.80;;;;;;;8.35;99.97;96382.06;10448427;28;21157;-78
2023/11/04 23:23:15;;;;;;;2.25;0.70;;;;;;;8.35;100.00;96380.22;10446881;28;20056;-79
2023/11/04 23:28:18;;;;;;;1.83;0.60;;;;;;;8.44;99.29;96383.47;10450521;28;20044;-80
2023/11/04 23:33:21;;;;;;;1.83;0.80;;;;;;;8.42;98.40;96382.88;10453900;28;20784;-77
2023/11/04 23:38:26;;;;;;;2.22;0.90;;;;;;;8.26;98.43;96368.09;10442584;28;20053;-80
2023/11/04 23:43:29;;;;;;;3.20;0.65;;;;;;;8.29;98.09;96362.31;10445879;28;20052;-79
2023/11/04 23:48:32;;;;;;;5.40;0.60;;;;;;;8.17;97.92;96366.66;10436400;28;20040;-78